createdAt,value
2022-11-13T00:02:16.475Z,6.05
2022-11-13T00:05:02.221Z,6.20
2022-11-13T00:07:48.190Z,8.43
2022-11-13T00:10:34.082Z,5.93
2022-11-13T00:13:20.157Z,6.88
2022-11-13T00:16:10.801Z,6.20
2022-11-13T00:18:56.534Z,6.53
2022-11-13T00:21:42.437Z,6.15
2022-11-13T00:24:28.551Z,6.78
2022-11-13T00:27:14.416Z,6.47
2022-11-13T00:30:00.322Z,5.93
2022-11-13T00:32:46.182Z,5.72
2022-11-13T00:35:33.316Z,6.43
2022-11-13T00:38:19.176Z,7.00
2022-11-13T00:41:05.375Z,6.70
2022-11-13T00:43:51.565Z,7.88
2022-11-13T00:46:37.227Z,6.97
2022-11-13T00:49:22.728Z,6.43
2022-11-13T00:52:08.645Z,7.07
2022-11-13T00:54:54.700Z,8.57
2022-11-13T00:57:40.543Z,6.65
2022-11-13T01:00:26.452Z,7.57
2022-11-13T01:03:13.489Z,7.25
2022-11-13T01:05:59.392Z,8.10
2022-11-13T01:08:45.537Z,6.85
2022-11-13T01:11:31.480Z,7.53
2022-11-13T01:14:17.119Z,7.55
2022-11-13T01:17:02.945Z,7.47
2022-11-13T01:19:48.865Z,7.93
2022-11-13T01:22:34.620Z,8.15
2022-11-13T01:25:20.614Z,7.38
2022-11-13T01:28:06.552Z,8.55
2022-11-13T01:30:52.253Z,7.85
2022-11-13T01:33:38.307Z,7.88
2022-11-13T01:36:27.850Z,8.55
2022-11-13T01:39:14.067Z,8.43
2022-11-13T01:42:00.365Z,8.70
2022-11-13T01:44:57.048Z,8.10
2022-11-13T01:47:42.728Z,8.70
2022-11-13T01:50:28.644Z,8.82
2022-11-13T01:53:14.820Z,7.88
2022-11-13T01:56:00.824Z,8.82
2022-11-13T01:58:55.127Z,8.73
2022-11-13T02:01:41.503Z,8.35
2022-11-13T02:04:28.663Z,8.38
2022-11-13T02:07:16.530Z,9.02
2022-11-13T02:10:02.063Z,8.70
2022-11-13T02:12:51.563Z,8.43
2022-11-13T02:15:38.796Z,7.63
2022-11-13T02:18:27.724Z,9.13
2022-11-13T02:21:13.665Z,8.68
2022-11-13T02:24:18.186Z,7.93
2022-11-13T02:27:07.509Z,8.32
2022-11-13T02:29:53.481Z,7.75
2022-11-13T02:32:45.063Z,8.15
2022-11-13T02:35:37.355Z,8.00
2022-11-13T02:38:23.577Z,9.10
2022-11-13T02:41:09.552Z,8.38
2022-11-13T02:43:55.469Z,9.93
2022-11-13T02:46:41.386Z,8.88
2022-11-13T02:49:30.195Z,7.60
2022-11-13T02:52:16.162Z,8.77
2022-11-13T02:55:02.019Z,9.20
2022-11-13T02:57:47.983Z,8.55
2022-11-13T03:00:33.808Z,8.50
2022-11-13T03:03:40.995Z,10.45
2022-11-13T03:06:25.352Z,9.10
2022-11-13T03:09:11.176Z,9.45
2022-11-13T03:11:57.183Z,10.82
2022-11-13T03:14:43.065Z,8.48
2022-11-13T03:17:32.187Z,10.20
2022-11-13T03:20:17.894Z,10.00
2022-11-13T03:23:04.705Z,11.00
2022-11-13T03:25:50.383Z,9.98
2022-11-13T03:28:37.555Z,8.23
2022-11-13T03:31:23.277Z,8.75
2022-11-13T03:34:09.083Z,8.18
2022-11-13T03:36:55.229Z,7.45
2022-11-13T03:39:40.876Z,7.78
2022-11-13T03:42:26.529Z,7.88
2022-11-13T03:45:13.136Z,7.47
2022-11-13T03:47:58.611Z,8.02
2022-11-13T03:50:47.837Z,9.02
2022-11-13T03:53:33.718Z,8.57
2022-11-13T03:56:19.515Z,8.30
2022-11-13T03:59:05.320Z,7.85
2022-11-13T04:01:51.455Z,7.68
2022-11-13T04:04:37.094Z,7.22
2022-11-13T04:07:23.043Z,6.88
2022-11-13T04:10:08.988Z,6.78
2022-11-13T04:12:54.727Z,6.97
2022-11-13T04:15:40.801Z,8.40
2022-11-13T04:18:26.690Z,6.93
2022-11-13T04:21:12.702Z,7.55
2022-11-13T04:23:58.714Z,6.70
2022-11-13T04:26:44.614Z,6.90
2022-11-13T04:29:30.550Z,5.43
2022-11-13T04:32:16.395Z,7.90
2022-11-13T04:35:02.686Z,6.78
2022-11-13T04:37:48.842Z,6.35
2022-11-13T04:40:34.395Z,7.78
2022-11-13T04:43:20.203Z,6.53
2022-11-13T04:46:06.021Z,6.95
2022-11-13T04:48:51.835Z,6.47
2022-11-13T04:51:37.688Z,7.93
2022-11-13T04:54:28.518Z,5.95
2022-11-13T04:57:14.587Z,6.47
2022-11-13T05:00:00.625Z,5.93
2022-11-13T05:02:46.171Z,6.43
2022-11-13T05:05:32.022Z,5.95
2022-11-13T05:08:18.019Z,5.93
2022-11-13T05:11:03.946Z,6.05
2022-11-13T05:13:49.911Z,6.38
2022-11-13T05:16:36.602Z,6.65
2022-11-13T05:19:22.327Z,5.72
2022-11-13T05:22:08.995Z,6.53
2022-11-13T05:24:54.761Z,5.80
2022-11-13T05:27:40.605Z,5.88
2022-11-13T05:30:26.453Z,6.60
2022-11-13T05:33:12.049Z,5.80
2022-11-13T05:36:02.948Z,5.90
2022-11-13T05:38:49.468Z,5.43
2022-11-13T05:41:35.417Z,5.80
2022-11-13T05:44:21.408Z,6.40
2022-11-13T05:47:07.264Z,6.88
2022-11-13T05:49:53.024Z,6.03
2022-11-13T05:52:38.934Z,6.13
2022-11-13T05:55:24.951Z,5.78
2022-11-13T05:58:12.765Z,6.35
2022-11-13T06:01:10.747Z,7.32
2022-11-13T06:03:57.932Z,6.57
2022-11-13T06:06:43.617Z,6.38
2022-11-13T06:09:29.475Z,6.68
2022-11-13T06:12:15.279Z,6.32
2022-11-13T06:15:01.223Z,7.03
2022-11-13T06:17:47.052Z,6.45
2022-11-13T06:20:35.957Z,6.90
2022-11-13T06:23:21.733Z,5.82
2022-11-13T06:26:16.219Z,7.18
2022-11-13T06:29:03.474Z,7.50
2022-11-13T06:31:49.209Z,5.88
2022-11-13T06:34:34.998Z,5.90
2022-11-13T06:37:20.892Z,5.40
2022-11-13T06:40:07.524Z,5.38
2022-11-13T06:42:53.229Z,5.63
2022-11-13T06:45:39.158Z,5.78
2022-11-13T06:48:25.727Z,5.50
2022-11-13T06:51:20.909Z,5.53
2022-11-13T06:54:06.599Z,5.68
2022-11-13T06:56:52.559Z,5.53
2022-11-13T06:59:39.569Z,5.00
2022-11-13T07:02:25.213Z,5.80
2022-11-13T07:05:11.166Z,6.43
2022-11-13T07:07:56.989Z,6.00
2022-11-13T07:10:43.513Z,5.95
2022-11-13T07:13:29.377Z,6.20
2022-11-13T07:16:18.112Z,5.80
2022-11-13T07:19:04.463Z,6.07
2022-11-13T07:21:50.124Z,6.05
2022-11-13T07:24:35.911Z,6.05
2022-11-13T07:27:22.160Z,5.30
2022-11-13T07:30:08.135Z,5.40
2022-11-13T07:32:54.385Z,4.65
2022-11-13T07:35:40.228Z,5.40
2022-11-13T07:38:26.631Z,5.60
2022-11-13T07:41:12.700Z,5.30
2022-11-13T07:43:58.784Z,6.00
2022-11-13T07:46:44.496Z,5.72
2022-11-13T07:49:30.410Z,6.40
2022-11-13T07:52:16.701Z,5.78
2022-11-13T07:55:02.517Z,6.40
2022-11-13T07:57:48.422Z,11.60
2022-11-13T08:00:35.554Z,6.15
2022-11-13T08:03:21.600Z,6.00
2022-11-13T08:06:08.280Z,5.82
2022-11-13T08:08:54.197Z,5.88
2022-11-13T08:11:40.428Z,5.82
2022-11-13T08:14:26.289Z,5.88
2022-11-13T08:17:12.140Z,5.47
2022-11-13T08:19:58.103Z,5.78
2022-11-13T08:22:43.955Z,6.70
2022-11-13T08:25:31.530Z,5.47
2022-11-13T08:28:17.115Z,5.45
2022-11-13T08:31:03.613Z,6.13
2022-11-13T08:33:49.464Z,5.40
2022-11-13T08:36:35.390Z,6.53
2022-11-13T08:39:20.908Z,6.07
2022-11-13T08:42:06.856Z,7.15
2022-11-13T08:44:52.615Z,7.35
2022-11-13T08:47:38.746Z,6.65
2022-11-13T08:50:24.660Z,5.72
2022-11-13T08:53:10.725Z,5.25
2022-11-13T08:56:00.796Z,6.88
2022-11-13T08:58:46.358Z,5.28
2022-11-13T09:01:32.112Z,5.00
2022-11-13T09:04:17.844Z,5.50
2022-11-13T09:07:03.794Z,6.47
2022-11-13T09:09:49.669Z,5.82
2022-11-13T09:12:35.590Z,7.43
2022-11-13T09:15:24.439Z,5.65
2022-11-13T09:18:11.076Z,6.07
2022-11-13T09:21:01.774Z,5.00
2022-11-13T09:23:47.352Z,5.47
2022-11-13T09:26:34.926Z,4.85
2022-11-13T09:29:21.111Z,5.43
2022-11-13T09:32:06.833Z,4.72
2022-11-13T09:34:52.701Z,4.70
2022-11-13T09:37:38.562Z,4.70
2022-11-13T09:40:33.571Z,5.43
2022-11-13T09:43:33.227Z,4.95
2022-11-13T09:46:25.162Z,4.10
2022-11-13T09:49:30.822Z,5.05
2022-11-13T09:52:21.349Z,4.50
2022-11-13T09:55:13.239Z,3.33
2022-11-13T09:58:04.724Z,4.05
2022-11-13T10:00:50.677Z,5.78
2022-11-13T10:07:11.316Z,4.18
2022-11-13T10:10:00.391Z,6.53
2022-11-13T10:12:51.664Z,4.25
2022-11-13T10:15:38.221Z,4.25
2022-11-13T10:18:31.229Z,3.25
2022-11-13T10:21:43.944Z,2.90
2022-11-13T10:24:39.387Z,2.95
2022-11-13T10:27:25.245Z,3.28
2022-11-13T10:30:17.107Z,3.45
2022-11-13T10:33:08.275Z,2.88
2022-11-13T10:36:21.155Z,2.67
2022-11-13T10:39:09.755Z,2.30
2022-11-13T10:41:56.243Z,2.10
2022-11-13T10:44:53.606Z,1.65
2022-11-13T10:48:03.696Z,2.40
2022-11-13T10:51:27.546Z,2.47
2022-11-13T10:54:26.421Z,1.65
2022-11-13T10:57:34.614Z,1.30
2022-11-13T11:00:22.908Z,2.00
2022-11-13T11:03:14.961Z,1.67
2022-11-13T11:06:03.329Z,1.40
2022-11-13T11:08:49.011Z,2.45
2022-11-13T11:11:53.521Z,1.65
2022-11-13T11:15:01.726Z,1.52
2022-11-13T11:17:59.121Z,1.55
2022-11-13T11:20:48.696Z,1.63
2022-11-13T11:23:58.941Z,1.50
2022-11-13T11:27:04.896Z,6.68
2022-11-13T11:30:07.319Z,1.50
2022-11-13T11:33:19.964Z,1.63
2022-11-13T11:36:11.845Z,1.48
2022-11-13T11:39:02.695Z,1.65
2022-11-13T11:42:30.451Z,1.52
2022-11-13T11:45:35.354Z,2.00
2022-11-13T11:48:26.246Z,2.70
2022-11-13T11:51:35.926Z,1.38
2022-11-13T11:55:02.319Z,1.20
2022-11-13T11:58:04.155Z,1.42
2022-11-13T12:00:51.958Z,2.10
2022-11-13T12:03:53.223Z,1.60
2022-11-13T12:07:05.107Z,2.88
2022-11-13T12:10:05.968Z,1.77
2022-11-13T12:13:13.783Z,2.60
2022-11-13T12:16:24.665Z,1.55
2022-11-13T12:19:10.859Z,2.00
2022-11-13T12:22:47.484Z,2.10
2022-11-13T12:25:42.011Z,1.70
2022-11-13T12:29:01.771Z,1.67
2022-11-13T12:32:28.854Z,1.98
2022-11-13T12:35:20.625Z,2.78
2022-11-13T12:38:28.736Z,1.17
2022-11-13T12:41:37.862Z,22.20
2022-11-13T12:44:29.286Z,1.67
2022-11-13T12:47:17.554Z,1.70
2022-11-13T12:50:32.758Z,1.92
2022-11-13T12:53:27.123Z,1.77
2022-11-13T12:56:26.401Z,1.73
2022-11-13T12:59:33.853Z,1.38
2022-11-13T13:02:42.840Z,2.90
2022-11-13T13:05:34.794Z,1.70
2022-11-13T13:08:26.827Z,1.73
2022-11-13T13:11:17.982Z,1.73
2022-11-13T13:14:27.504Z,2.60
2022-11-13T13:17:20.128Z,1.70
2022-11-13T13:20:20.918Z,1.70
2022-11-13T13:23:11.638Z,3.47
2022-11-13T13:26:27.936Z,1.70
2022-11-13T13:29:26.413Z,1.70
2022-11-13T13:32:42.033Z,2.00
2022-11-13T13:35:34.348Z,1.95
2022-11-13T13:38:22.879Z,1.60
2022-11-13T13:41:25.997Z,1.63
2022-11-13T13:44:55.818Z,2.33
2022-11-13T13:47:51.399Z,3.08
2022-11-13T13:50:43.933Z,1.90
2022-11-13T13:53:34.668Z,2.50
2022-11-13T13:56:22.147Z,2.53
2022-11-13T13:59:24.831Z,3.90
2022-11-13T14:02:20.304Z,3.28
2022-11-13T14:05:28.862Z,2.67
2022-11-13T14:08:24.485Z,3.13
2022-11-13T14:14:23.577Z,2.92
2022-11-13T14:17:11.013Z,3.03
2022-11-13T14:20:00.965Z,2.95
2022-11-13T14:22:55.183Z,2.85
2022-11-13T14:25:44.184Z,4.22
2022-11-13T14:28:32.880Z,5.10
2022-11-13T14:31:19.069Z,5.07
2022-11-13T14:34:11.262Z,5.38
2022-11-13T14:37:06.711Z,8.23
2022-11-13T14:39:53.673Z,7.97
2022-11-13T14:42:49.781Z,5.05
2022-11-13T14:45:35.752Z,4.28
2022-11-13T14:48:24.820Z,3.10
2022-11-13T14:51:27.728Z,3.40
2022-11-13T14:55:00.284Z,4.35
2022-11-13T14:57:50.724Z,3.47
2022-11-13T15:00:37.892Z,3.00
2022-11-13T15:03:24.254Z,4.00
2022-11-13T15:06:20.667Z,2.88
2022-11-13T15:09:12.834Z,2.60
2022-11-13T15:11:58.616Z,2.97
2022-11-13T15:14:44.379Z,3.25
2022-11-13T15:17:31.128Z,4.20
2022-11-13T15:20:23.633Z,5.22
2022-11-13T15:23:15.467Z,4.28
2022-11-13T15:26:01.058Z,4.38
2022-11-13T15:28:47.087Z,7.57
2022-11-13T15:31:34.268Z,10.10
2022-11-13T15:34:20.035Z,5.55
2022-11-13T15:37:13.969Z,8.43
2022-11-13T15:39:59.727Z,15.13
2022-11-13T15:42:46.424Z,8.30
2022-11-13T15:45:32.344Z,5.80
2022-11-13T15:48:18.032Z,5.00
2022-11-13T15:51:03.893Z,5.63
2022-11-13T15:53:56.083Z,7.63
2022-11-13T15:56:43.771Z,7.68
2022-11-13T15:59:29.460Z,5.93
2022-11-13T16:02:15.862Z,7.63
2022-11-13T16:05:01.811Z,9.55
2022-11-13T16:07:47.716Z,11.82
2022-11-13T16:10:33.691Z,10.43
2022-11-13T16:13:19.630Z,13.32
2022-11-13T16:16:06.047Z,15.50
2022-11-13T16:18:58.789Z,11.95
2022-11-13T16:21:46.030Z,12.50
2022-11-13T16:24:31.992Z,11.07
2022-11-13T16:27:27.125Z,10.82
2022-11-13T16:33:05.777Z,8.82
2022-11-13T16:35:51.363Z,9.05
2022-11-13T16:38:37.228Z,9.77
2022-11-13T16:41:23.689Z,8.07
2022-11-13T16:44:09.581Z,7.45
2022-11-13T16:46:55.577Z,7.22
2022-11-13T16:49:41.417Z,8.18
2022-11-13T16:52:27.912Z,7.90
2022-11-13T16:55:14.021Z,10.73
2022-11-13T16:57:59.685Z,9.75
2022-11-13T17:00:45.739Z,10.82
2022-11-13T17:03:31.881Z,11.23
2022-11-13T17:06:29.448Z,9.77
2022-11-13T17:09:15.904Z,12.13
2022-11-13T17:12:01.585Z,11.18
2022-11-13T17:14:47.759Z,10.88
2022-11-13T17:17:33.963Z,11.32
2022-11-13T17:20:19.844Z,12.38
2022-11-13T17:23:05.654Z,12.82
2022-11-13T17:25:51.762Z,11.13
2022-11-13T17:28:37.879Z,14.02
2022-11-13T17:31:23.673Z,12.23
2022-11-13T17:34:09.816Z,13.13
2022-11-13T17:36:55.993Z,12.70
2022-11-13T17:39:41.541Z,16.23
2022-11-13T17:42:28.664Z,14.32
2022-11-13T17:45:14.661Z,12.80
2022-11-13T17:48:00.463Z,14.07
2022-11-13T17:50:56.562Z,14.48
2022-11-13T17:53:42.685Z,13.98
2022-11-13T17:56:28.354Z,12.20
2022-11-13T17:59:14.076Z,12.32
2022-11-13T18:02:00.487Z,14.80
2022-11-13T18:04:46.608Z,13.98
2022-11-13T18:07:32.500Z,17.02
2022-11-13T18:10:18.201Z,20.08
2022-11-13T18:13:04.042Z,22.48
2022-11-13T18:15:49.992Z,17.75
2022-11-13T18:18:36.298Z,21.70
2022-11-13T18:21:29.633Z,21.98
2022-11-13T18:24:18.180Z,23.70
2022-11-13T18:27:06.162Z,21.35
2022-11-13T18:29:52.585Z,23.70
2022-11-13T18:32:38.496Z,22.52
2022-11-13T18:35:24.235Z,23.85
2022-11-13T18:38:10.329Z,22.50
2022-11-13T18:41:05.714Z,21.20
2022-11-13T18:43:52.204Z,20.65
2022-11-13T18:46:37.985Z,24.63
2022-11-13T18:49:23.960Z,17.50
2022-11-13T18:52:09.820Z,20.42
2022-11-13T18:54:55.436Z,14.80
2022-11-13T18:57:41.419Z,14.32
2022-11-13T19:00:27.387Z,15.27
2022-11-13T19:03:13.491Z,17.33
2022-11-13T19:05:59.391Z,15.95
2022-11-13T19:08:45.864Z,14.50
2022-11-13T19:11:31.960Z,15.70
2022-11-13T19:14:18.914Z,17.40
2022-11-13T19:17:04.757Z,16.63
2022-11-13T19:19:50.396Z,16.33
2022-11-13T19:22:36.353Z,18.90
2022-11-13T19:25:22.325Z,19.05
2022-11-13T19:28:08.373Z,20.77
2022-11-13T19:30:55.287Z,19.90
2022-11-13T19:33:41.630Z,17.13
2022-11-13T19:36:29.732Z,15.43
2022-11-13T19:39:16.742Z,15.45
2022-11-13T19:42:02.547Z,17.15
2022-11-13T19:44:48.465Z,18.60
2022-11-13T19:47:34.398Z,23.42
2022-11-13T19:50:20.307Z,22.35
2022-11-13T19:53:06.598Z,21.48
2022-11-13T19:55:55.763Z,25.05
2022-11-13T19:58:44.228Z,26.00
2022-11-13T20:01:32.017Z,26.10
2022-11-13T20:04:18.038Z,24.70
2022-11-13T20:07:03.888Z,26.98
2022-11-13T20:09:49.720Z,24.17
2022-11-13T20:12:35.218Z,29.52
2022-11-13T20:15:21.226Z,58.58
2022-11-13T20:18:07.049Z,37.63
2022-11-13T20:20:54.942Z,31.63
2022-11-13T20:23:41.188Z,36.25
2022-11-13T20:26:27.730Z,30.95
2022-11-13T20:29:13.598Z,22.80
2022-11-13T20:32:00.148Z,21.00
2022-11-13T20:34:45.742Z,31.40
2022-11-13T20:37:31.695Z,35.72
2022-11-13T20:40:17.801Z,30.65
2022-11-13T20:43:03.492Z,26.65
2022-11-13T20:45:49.532Z,27.80
2022-11-13T20:48:36.105Z,28.23
2022-11-13T20:51:25.542Z,34.30
2022-11-13T20:54:11.365Z,30.38
2022-11-13T20:56:57.358Z,31.73
2022-11-13T20:59:42.852Z,33.30
2022-11-13T21:02:28.694Z,34.25
2022-11-13T21:05:15.343Z,35.42
2022-11-13T21:08:01.251Z,33.25
2022-11-13T21:10:47.280Z,32.85
2022-11-13T21:13:33.883Z,33.63
2022-11-13T21:16:19.810Z,31.02
2022-11-13T21:19:05.828Z,29.15
2022-11-13T21:21:51.806Z,27.92
2022-11-13T21:24:37.927Z,26.95
2022-11-13T21:27:23.660Z,30.30
2022-11-13T21:30:09.876Z,28.58
2022-11-13T21:32:59.347Z,29.42
2022-11-13T21:35:46.010Z,30.52
2022-11-13T21:38:31.984Z,30.13
2022-11-13T21:41:26.925Z,30.42
2022-11-13T21:44:12.701Z,29.10
2022-11-13T21:46:58.256Z,26.73
2022-11-13T21:49:44.528Z,25.83
2022-11-13T21:52:30.445Z,27.83
2022-11-13T21:55:16.581Z,24.35
2022-11-13T21:58:02.034Z,27.92
2022-11-13T22:00:48.012Z,24.10
2022-11-13T22:03:34.218Z,23.30
2022-11-13T22:06:21.720Z,20.48
2022-11-13T22:09:23.140Z,20.98
2022-11-13T22:12:09.831Z,21.02
2022-11-13T22:14:55.569Z,21.92
2022-11-13T22:17:41.799Z,18.17
2022-11-13T22:20:27.781Z,25.23
2022-11-13T22:23:13.549Z,23.58
2022-11-13T22:26:10.683Z,22.40
2022-11-13T22:28:58.646Z,20.42
2022-11-13T22:31:44.921Z,20.38
2022-11-13T22:34:30.859Z,17.25
2022-11-13T22:37:16.705Z,16.17
2022-11-13T22:40:02.886Z,16.27
2022-11-13T22:42:48.579Z,18.95
2022-11-13T22:45:34.534Z,18.23
2022-11-13T22:48:20.220Z,16.58
2022-11-13T22:51:17.798Z,14.50
2022-11-13T22:54:06.429Z,14.80
2022-11-13T22:56:53.209Z,16.52
2022-11-13T22:59:39.210Z,13.75
2022-11-13T23:02:25.244Z,13.63
2022-11-13T23:05:11.130Z,14.90
2022-11-13T23:07:57.415Z,14.07
2022-11-13T23:10:43.204Z,13.68
2022-11-13T23:13:29.124Z,14.10
2022-11-13T23:16:15.388Z,15.57
2022-11-13T23:19:01.950Z,14.40
2022-11-13T23:21:48.918Z,15.52
2022-11-13T23:24:34.762Z,16.80
2022-11-13T23:27:20.352Z,14.80
2022-11-13T23:30:06.963Z,14.57
2022-11-13T23:32:53.062Z,17.52
2022-11-13T23:35:39.065Z,15.70
2022-11-13T23:38:25.191Z,13.60
2022-11-13T23:41:11.456Z,16.00
2022-11-13T23:44:12.578Z,12.85
2022-11-13T23:46:58.562Z,15.05
2022-11-13T23:49:44.132Z,13.52
2022-11-13T23:52:30.166Z,13.52
2022-11-13T23:55:16.220Z,14.23
2022-11-13T23:58:04.016Z,12.88
